Time;durP1;ratioP1;P1;durP2;ratioP2;P2;SDS_P1;SDS_P2;PMS_P1;PMS_P2;Temp;Humidity;BMP_temperature;BMP_pressure;BME280_temperature;BME280_humidity;BME280_pressure;Samples;Min_cycle;Max_cycle;Signal;HPM_P1;HPM_P2
2023/04/02 00:01:37;;;;;;;0.30;0.30;;;7.20;99.90;;;;;;5013351;28;20480;-78
2023/04/02 00:04:25;;;;;;;0.30;0.20;;;7.20;99.90;;;;;;5013166;28;20433;-78
2023/04/02 00:07:16;;;;;;;0.30;0.30;;;7.20;99.90;;;;;;5015318;28;20460;-78
2023/04/02 00:09:43;;;;;;;0.30;0.30;;;7.20;99.90;;;;;;5016695;28;20475;-78
2023/04/02 00:12:19;;;;;;;0.30;0.30;;;7.10;99.90;;;;;;5016833;28;20951;-77
2023/04/02 00:14:48;;;;;;;0.40;0.30;;;7.20;99.90;;;;;;5016748;28;20542;-78
2023/04/02 00:17:16;;;;;;;0.30;0.30;;;7.20;99.90;;;;;;5016784;28;20462;-78
2023/04/02 00:19:49;;;;;;;0.30;0.30;;;7.20;99.90;;;;;;5017219;28;20498;-78
2023/04/02 00:22:20;;;;;;;0.30;0.30;;;7.10;99.90;;;;;;5016678;28;21007;-78
2023/04/02 00:24:49;;;;;;;0.30;0.30;;;7.20;99.90;;;;;;5016633;28;20935;-78
2023/04/02 00:27:17;;;;;;;0.30;0.27;;;7.20;99.90;;;;;;5016896;28;20480;-78
2023/04/02 00:29:48;;;;;;;0.30;0.20;;;7.30;99.90;;;;;;5016524;28;21004;-78
2023/04/02 00:32:26;;;;;;;0.40;0.30;;;7.30;99.90;;;;;;5017478;28;20452;-79
2023/04/02 00:34:55;;;;;;;0.30;0.30;;;7.40;99.90;;;;;;5016508;28;20916;-80
2023/04/02 00:37:26;;;;;;;0.30;0.20;;;7.50;99.90;;;;;;5016411;28;20848;-79
2023/04/02 00:39:58;;;;;;;0.83;0.30;;;7.50;99.90;;;;;;5016647;28;20478;-80
2023/04/02 00:42:26;;;;;;;0.83;0.40;;;7.50;99.90;;;;;;5016298;28;20464;-80
2023/04/02 00:44:54;;;;;;;0.60;0.40;;;7.50;99.90;;;;;;5016580;28;20448;-79
2023/04/02 00:47:25;;;;;;;0.30;0.30;;;7.60;99.90;;;;;;5016539;28;20452;-80
2023/04/02 00:49:59;;;;;;;0.33;0.27;;;7.60;99.90;;;;;;5016182;28;21058;-79
2023/04/02 00:52:28;;;;;;;0.30;0.20;;;7.60;99.90;;;;;;5016728;28;20464;-80
2023/04/02 00:55:02;;;;;;;0.30;0.20;;;7.60;99.90;;;;;;5016412;28;20467;-79
2023/04/02 00:57:29;;;;;;;0.30;0.20;;;7.50;99.90;;;;;;5016342;28;20440;-80
2023/04/02 00:59:58;;;;;;;0.30;0.30;;;7.50;99.90;;;;;;5016257;28;20472;-79
2023/04/02 01:02:29;;;;;;;0.30;0.30;;;7.50;99.90;;;;;;5016170;28;20484;-79
2023/04/02 01:04:59;;;;;;;0.30;0.30;;;7.50;99.90;;;;;;5017025;28;20803;-80
2023/04/02 01:07:48;;;;;;;0.30;0.30;;;7.50;99.90;;;;;;5016261;28;20439;-80
2023/04/02 01:10:39;;;;;;;0.30;0.30;;;7.50;99.90;;;;;;5016080;28;20476;-79
2023/04/02 01:13:14;;;;;;;0.30;0.20;;;7.40;99.90;;;;;;5015855;28;20452;-80
2023/04/02 01:15:45;;;;;;;0.30;0.30;;;7.30;99.90;;;;;;5015664;28;20490;-80
2023/04/02 01:18:30;;;;;;;0.30;0.30;;;7.30;99.90;;;;;;5015631;28;20449;-80
2023/04/02 01:21:09;;;;;;;0.33;0.30;;;7.30;99.90;;;;;;5015831;28;20476;-79
2023/04/02 01:23:48;;;;;;;0.30;0.30;;;7.40;99.90;;;;;;5015852;28;20441;-80
2023/04/02 01:26:25;;;;;;;0.30;0.20;;;7.40;99.90;;;;;;5015843;28;20455;-79
2023/04/02 01:29:02;;;;;;;0.30;0.30;;;7.40;99.90;;;;;;5015516;28;20409;-79
2023/04/02 01:31:32;;;;;;;0.50;0.30;;;7.50;99.90;;;;;;5015741;28;20432;-79
2023/04/02 01:33:59;;;;;;;0.40;0.30;;;7.50;99.90;;;;;;5015629;28;20807;-79
2023/04/02 01:36:33;;;;;;;0.40;0.30;;;7.50;99.90;;;;;;5015598;28;20541;-80
2023/04/02 01:39:14;;;;;;;0.30;0.30;;;7.50;99.90;;;;;;5015234;28;20471;-80
2023/04/02 01:41:47;;;;;;;0.30;0.20;;;7.50;99.90;;;;;;5015515;28;20844;-79
2023/04/02 01:44:20;;;;;;;0.30;0.30;;;7.50;99.90;;;;;;5015562;28;20436;-80
2023/04/02 01:46:48;;;;;;;0.30;0.30;;;7.50;99.90;;;;;;5015147;28;20935;-80
2023/04/02 01:49:20;;;;;;;0.43;0.30;;;7.50;99.90;;;;;;5015307;28;20471;-79
2023/04/02 01:51:52;;;;;;;0.40;0.30;;;7.50;99.90;;;;;;5015378;28;20455;-80
2023/04/02 01:54:20;;;;;;;0.30;0.30;;;7.50;99.90;;;;;;5015286;28;20917;-80
2023/04/02 01:56:47;;;;;;;0.30;0.20;;;7.60;99.90;;;;;;5015226;28;20448;-79
2023/04/02 01:59:18;;;;;;;0.30;0.30;;;7.60;99.90;;;;;;5015197;28;20479;-86
2023/04/02 02:01:50;;;;;;;0.40;0.30;;;7.60;99.90;;;;;;5015186;28;20567;-86
2023/04/02 02:04:18;;;;;;;0.40;0.33;;;7.50;99.90;;;;;;5015282;28;20440;-86
2023/04/02 02:06:46;;;;;;;0.30;0.30;;;7.60;99.90;;;;;;5014847;28;20460;-86
2023/04/02 02:09:21;;;;;;;0.37;0.30;;;7.60;99.90;;;;;;5014881;28;20464;-86
2023/04/02 02:11:50;;;;;;;0.40;0.30;;;7.60;99.90;;;;;;5015123;28;20420;-86
2023/04/02 02:14:21;;;;;;;0.30;0.30;;;7.70;99.90;;;;;;5014174;28;20516;-86
2023/04/02 02:16:48;;;;;;;0.30;0.30;;;7.70;99.90;;;;;;5015006;28;20444;-86
2023/04/02 02:19:24;;;;;;;0.30;0.20;;;7.70;99.90;;;;;;5014707;28;20460;-86
2023/04/02 02:21:53;;;;;;;0.30;0.30;;;7.60;99.90;;;;;;5014754;28;20923;-86
2023/04/02 02:24:22;;;;;;;0.30;0.30;;;7.60;99.90;;;;;;5014860;28;20502;-86
2023/04/02 02:26:55;;;;;;;0.40;0.30;;;7.60;99.90;;;;;;5015151;28;20448;-86
2023/04/02 02:29:26;;;;;;;0.30;0.20;;;7.70;99.90;;;;;;5013955;28;20527;-86
2023/04/02 02:31:54;;;;;;;0.30;0.30;;;7.60;99.90;;;;;;5014571;28;20444;-86
2023/04/02 02:34:29;;;;;;;0.30;0.30;;;7.60;99.90;;;;;;5015038;28;20444;-86
2023/04/02 02:37:02;;;;;;;0.30;0.27;;;7.60;99.90;;;;;;5014683;28;20435;-86
2023/04/02 02:39:35;;;;;;;0.30;0.30;;;7.60;99.90;;;;;;5014574;28;20472;-86
2023/04/02 02:42:08;;;;;;;0.30;0.20;;;7.50;99.90;;;;;;5015372;28;20479;-86
2023/04/02 02:44:39;;;;;;;0.30;0.30;;;7.50;99.90;;;;;;5014312;28;20908;-85
2023/04/02 02:47:13;;;;;;;0.30;0.30;;;7.50;99.90;;;;;;5014494;28;20432;-86
2023/04/02 02:49:41;;;;;;;0.30;0.30;;;7.60;99.90;;;;;;5014375;28;20479;-86
2023/04/02 02:52:15;;;;;;;0.30;0.30;;;7.60;99.90;;;;;;5014219;28;20448;-87
2023/04/02 02:54:44;;;;;;;0.30;0.30;;;7.60;99.90;;;;;;5014262;28;21028;-86
2023/04/02 02:57:15;;;;;;;0.40;0.40;;;7.60;99.90;;;;;;5014439;28;20451;-86
2023/04/02 02:59:44;;;;;;;3.13;0.57;;;7.60;99.90;;;;;;5014241;28;20522;-86
2023/04/02 03:02:11;;;;;;;0.90;0.37;;;7.60;99.90;;;;;;5014787;28;20510;-86
2023/04/02 03:04:38;;;;;;;0.50;0.33;;;7.50;99.90;;;;;;5014510;28;20451;-86
2023/04/02 03:07:08;;;;;;;0.50;0.33;;;7.50;99.90;;;;;;5014201;28;20452;-86
2023/04/02 03:09:41;;;;;;;0.50;0.30;;;7.50;99.90;;;;;;5014060;28;20468;-86
2023/04/02 03:12:26;;;;;;;0.30;0.20;;;7.50;99.90;;;;;;5014161;28;20429;-86
2023/04/02 03:15:00;;;;;;;0.30;0.30;;;7.50;99.90;;;;;;5013801;28;20476;-86
2023/04/02 03:17:33;;;;;;;0.30;0.30;;;7.50;99.90;;;;;;5013969;28;20435;-86
2023/04/02 03:20:06;;;;;;;0.40;0.40;;;7.50;99.90;;;;;;5014149;28;20476;-78
2023/04/02 03:22:37;;;;;;;0.30;0.30;;;7.50;99.90;;;;;;5013785;28;20467;-78
2023/04/02 03:25:12;;;;;;;0.30;0.30;;;7.60;99.90;;;;;;5013790;28;20436;-78
2023/04/02 03:27:42;;;;;;;0.50;0.30;;;7.60;99.90;;;;;;5013714;28;20467;-78
2023/04/02 03:30:26;;;;;;;0.30;0.30;;;7.50;99.90;;;;;;5013670;28;20479;-78
2023/04/02 03:32:57;;;;;;;0.30;0.30;;;7.50;99.90;;;;;;5013383;28;20440;-78
2023/04/02 03:35:32;;;;;;;0.30;0.30;;;7.50;99.90;;;;;;5014236;28;20436;-78
2023/04/02 03:38:03;;;;;;;0.37;0.37;;;7.60;99.90;;;;;;5013633;28;20442;-78
2023/04/02 03:40:34;;;;;;;0.30;0.27;;;7.60;99.90;;;;;;5013435;28;20483;-78
2023/04/02 03:43:05;;;;;;;0.33;0.27;;;7.70;99.90;;;;;;5013524;28;20476;-78
2023/04/02 03:45:38;;;;;;;0.40;0.30;;;7.70;99.90;;;;;;5013270;28;20908;-78
2023/04/02 03:48:11;;;;;;;0.30;0.23;;;7.80;99.90;;;;;;5014163;28;20844;-78
2023/04/02 03:50:43;;;;;;;0.40;0.30;;;7.70;99.90;;;;;;5013710;28;20476;-78
2023/04/02 03:53:12;;;;;;;0.37;0.30;;;7.70;99.90;;;;;;5013523;28;20424;-78
2023/04/02 03:55:40;;;;;;;0.30;0.30;;;7.70;99.90;;;;;;5013462;28;20441;-78
2023/04/02 03:58:14;;;;;;;0.30;0.30;;;7.70;99.90;;;;;;5013445;28;20498;-78
2023/04/02 04:00:47;;;;;;;0.40;0.30;;;7.70;99.90;;;;;;5013042;28;20975;-78
2023/04/02 04:03:17;;;;;;;0.30;0.30;;;7.60;99.90;;;;;;5013365;28;20594;-78
2023/04/02 04:05:49;;;;;;;0.30;0.30;;;7.60;99.90;;;;;;5013343;28;20448;-78
2023/04/02 04:08:20;;;;;;;2.50;0.50;;;7.60;99.90;;;;;;5013343;28;20421;-78
2023/04/02 04:10:51;;;;;;;0.70;0.40;;;7.60;99.90;;;;;;5013271;28;20479;-78
2023/04/02 04:13:25;;;;;;;0.40;0.37;;;7.60;99.90;;;;;;5013354;28;20456;-86
2023/04/02 04:16:00;;;;;;;0.30;0.30;;;7.60;99.90;;;;;;5013118;28;20483;-86
2023/04/02 04:18:36;;;;;;;0.30;0.27;;;7.60;99.90;;;;;;5013539;28;20440;-86
2023/04/02 04:21:12;;;;;;;0.40;0.30;;;7.70;99.90;;;;;;5013387;28;20439;-87
2023/04/02 04:23:40;;;;;;;0.40;0.30;;;7.70;99.90;;;;;;5013259;28;20483;-86
2023/04/02 04:26:19;;;;;;;0.30;0.30;;;7.70;99.90;;;;;;5013126;28;20456;-86
2023/04/02 04:28:57;;;;;;;0.50;0.33;;;7.70;99.90;;;;;;5013824;28;20467;-86
2023/04/02 04:31:32;;;;;;;0.40;0.30;;;7.60;99.90;;;;;;5013136;28;20442;-86
2023/04/02 04:34:08;;;;;;;0.30;0.30;;;7.60;99.90;;;;;;5013255;28;20428;-86
2023/04/02 04:36:52;;;;;;;0.30;0.30;;;7.60;99.90;;;;;;5013423;28;20475;-86
2023/04/02 04:39:23;;;;;;;0.30;0.20;;;7.60;99.90;;;;;;5013270;28;20904;-86
2023/04/02 04:41:53;;;;;;;0.37;0.30;;;7.60;99.90;;;;;;5013269;28;20460;-86
2023/04/02 04:44:23;;;;;;;0.30;0.30;;;7.60;99.90;;;;;;5013220;28;20432;-86
2023/04/02 04:46:57;;;;;;;0.30;0.30;;;7.60;99.90;;;;;;5013083;28;20475;-87
2023/04/02 04:49:30;;;;;;;0.40;0.37;;;7.50;99.90;;;;;;5013080;28;20474;-86
2023/04/02 04:52:00;;;;;;;0.30;0.30;;;7.60;99.90;;;;;;5013839;28;20863;-79
2023/04/02 04:54:28;;;;;;;0.30;0.30;;;7.60;99.90;;;;;;5016492;28;20432;-79
2023/04/02 04:56:59;;;;;;;0.40;0.30;;;7.60;99.90;;;;;;5016399;28;20564;-79
2023/04/02 04:59:29;;;;;;;0.40;0.30;;;7.50;99.90;;;;;;5016364;28;20471;-80
2023/04/02 05:02:03;;;;;;;1.60;0.70;;;7.50;99.90;;;;;;5016208;28;20447;-80
2023/04/02 05:04:34;;;;;;;0.40;0.40;;;7.60;99.90;;;;;;5015996;28;20432;-80
2023/04/02 05:07:04;;;;;;;0.40;0.40;;;7.60;99.90;;;;;;5016265;28;20440;-80
2023/04/02 05:09:35;;;;;;;0.30;0.30;;;7.50;99.90;;;;;;5016074;28;20487;-79
2023/04/02 05:12:10;;;;;;;0.40;0.40;;;7.60;99.90;;;;;;5016117;28;20441;-80
2023/04/02 05:14:43;;;;;;;0.30;0.30;;;7.70;99.90;;;;;;5015973;28;20479;-80
2023/04/02 05:17:16;;;;;;;0.30;0.30;;;7.60;99.90;;;;;;5015789;28;20416;-80
2023/04/02 05:19:48;;;;;;;0.63;0.50;;;7.60;99.90;;;;;;5015678;28;20453;-80
2023/04/02 05:22:24;;;;;;;0.40;0.40;;;7.60;99.90;;;;;;5015664;28;20417;-80
2023/04/02 05:25:12;;;;;;;0.43;0.43;;;7.60;99.90;;;;;;5015942;28;20436;-80
2023/04/02 05:27:45;;;;;;;1.23;0.40;;;7.70;99.90;;;;;;5015827;28;20437;-80
2023/04/02 05:30:31;;;;;;;0.40;0.30;;;7.60;99.90;;;;;;5016100;28;20882;-79
2023/04/02 05:33:03;;;;;;;0.40;0.30;;;7.70;99.90;;;;;;5015783;28;20435;-85
2023/04/02 05:35:34;;;;;;;0.40;0.30;;;7.70;99.90;;;;;;5015893;28;20444;-87
2023/04/02 05:38:01;;;;;;;0.30;0.30;;;7.70;99.90;;;;;;5015725;28;20428;-86
2023/04/02 05:40:34;;;;;;;0.40;0.40;;;7.70;99.90;;;;;;5015357;28;21015;-86
2023/04/02 05:43:03;;;;;;;0.40;0.30;;;7.80;99.90;;;;;;5015704;28;20563;-86
2023/04/02 05:45:33;;;;;;;0.40;0.30;;;7.90;99.90;;;;;;5015372;28;20947;-86
2023/04/02 05:48:06;;;;;;;0.40;0.30;;;7.90;99.90;;;;;;5015843;28;20440;-84
2023/04/02 05:50:36;;;;;;;0.50;0.40;;;7.90;99.90;;;;;;5015319;28;20472;-84
2023/04/02 05:53:08;;;;;;;1.00;0.43;;;7.90;99.90;;;;;;5015025;28;20955;-84
2023/04/02 05:55:41;;;;;;;0.50;0.50;;;7.90;99.90;;;;;;5015349;28;20487;-78
2023/04/02 05:58:17;;;;;;;0.40;0.40;;;7.90;99.90;;;;;;5015279;28;20448;-78
2023/04/02 06:01:06;;;;;;;0.30;0.20;;;7.90;99.90;;;;;;5015153;28;20502;-78
2023/04/02 06:03:44;;;;;;;0.30;0.30;;;7.90;99.90;;;;;;4998627;28;20487;-78
2023/04/02 06:06:17;;;;;;;0.30;0.30;;;7.90;99.90;;;;;;5015135;28;20623;-78
2023/04/02 06:08:51;;;;;;;0.40;0.33;;;7.90;99.90;;;;;;5014993;28;20437;-78
2023/04/02 06:11:21;;;;;;;0.40;0.30;;;7.90;99.90;;;;;;5015119;28;20440;-78
2023/04/02 06:13:48;;;;;;;0.47;0.47;;;8.00;99.90;;;;;;5014781;28;20444;-78
2023/04/02 06:16:16;;;;;;;0.40;0.30;;;8.00;99.90;;;;;;5014942;28;20432;-78
2023/04/02 06:18:45;;;;;;;0.40;0.30;;;8.00;99.90;;;;;;5014536;28;20452;-78
2023/04/02 06:21:14;;;;;;;2.70;0.50;;;8.10;99.90;;;;;;5014781;28;20463;-78
2023/04/02 06:23:45;;;;;;;0.63;0.40;;;8.10;99.90;;;;;;5014667;28;20492;-78
2023/04/02 06:26:19;;;;;;;0.50;0.50;;;8.10;99.90;;;;;;5014774;28;20487;-78
2023/04/02 06:28:48;;;;;;;0.40;0.30;;;8.20;99.90;;;;;;5014621;28;20439;-78
2023/04/02 06:31:25;;;;;;;0.40;0.40;;;8.20;99.90;;;;;;5014679;28;20452;-78
2023/04/02 06:33:55;;;;;;;0.50;0.30;;;8.30;99.90;;;;;;5014324;28;20432;-78
2023/04/02 06:36:23;;;;;;;0.90;0.37;;;8.30;99.90;;;;;;5014554;28;20510;-78
2023/04/02 06:38:51;;;;;;;0.30;0.30;;;8.30;99.90;;;;;;5014406;28;20452;-78
2023/04/02 06:41:21;;;;;;;0.30;0.20;;;8.40;99.90;;;;;;5014471;28;20452;-78
2023/04/02 06:43:51;;;;;;;1.23;0.40;;;8.40;99.90;;;;;;5014392;28;20595;-78
2023/04/02 06:46:21;;;;;;;0.30;0.30;;;8.40;99.90;;;;;;5014405;28;20814;-78
2023/04/02 06:48:54;;;;;;;0.30;0.30;;;8.50;99.90;;;;;;5014236;28;20440;-78
2023/04/02 06:51:25;;;;;;;0.40;0.40;;;8.50;99.90;;;;;;5014369;28;20436;-78
2023/04/02 06:53:52;;;;;;;0.30;0.30;;;8.60;99.90;;;;;;5013942;28;20484;-78
2023/04/02 06:56:30;;;;;;;0.30;0.30;;;8.60;99.90;;;;;;5014244;28;20546;-78
2023/04/02 06:58:57;;;;;;;0.80;0.50;;;8.60;99.90;;;;;;5014200;28;20567;-79
2023/04/02 07:01:27;;;;;;;0.30;0.30;;;8.70;99.90;;;;;;5014162;28;20448;-80
2023/04/02 07:03:56;;;;;;;0.40;0.40;;;8.80;99.90;;;;;;5014002;28;20488;-79
2023/04/02 07:06:23;;;;;;;0.40;0.30;;;8.70;99.90;;;;;;5014058;28;20917;-79
2023/04/02 07:08:50;;;;;;;0.40;0.40;;;8.80;99.90;;;;;;5013926;28;20676;-80
2023/04/02 07:11:20;;;;;;;0.40;0.30;;;8.90;99.90;;;;;;5013735;28;20441;-80
2023/04/02 07:13:47;;;;;;;0.40;0.30;;;9.00;99.90;;;;;;5013712;28;20928;-79
2023/04/02 07:16:16;;;;;;;0.40;0.30;;;9.10;99.90;;;;;;5013579;28;20444;-80
2023/04/02 07:18:43;;;;;;;0.40;0.40;;;9.20;99.90;;;;;;5013504;28;20432;-80
2023/04/02 07:21:11;;;;;;;0.50;0.40;;;9.30;99.90;;;;;;5013861;28;20435;-79
2023/04/02 07:23:38;;;;;;;0.30;0.30;;;9.30;99.90;;;;;;5013691;28;20488;-79
2023/04/02 07:26:06;;;;;;;1.07;0.40;;;9.30;99.90;;;;;;5013732;28;20459;-79
2023/04/02 07:28:33;;;;;;;0.30;0.27;;;9.40;99.90;;;;;;5013384;28;20452;-80
2023/04/02 07:31:00;;;;;;;0.30;0.30;;;9.50;99.90;;;;;;5013896;28;20468;-80
2023/04/02 07:33:29;;;;;;;0.40;0.30;;;9.50;99.90;;;;;;5013689;28;20531;-79
2023/04/02 07:35:57;;;;;;;0.40;0.30;;;9.70;99.90;;;;;;5013326;28;20463;-79
2023/04/02 07:38:25;;;;;;;0.50;0.30;;;9.70;99.90;;;;;;5013561;28;20440;-80
2023/04/02 07:40:52;;;;;;;0.30;0.27;;;9.80;99.90;;;;;;5013196;28;20468;-79
2023/04/02 07:43:19;;;;;;;0.40;0.40;;;9.80;99.90;;;;;;5013463;28;20480;-80
2023/04/02 07:45:45;;;;;;;0.30;0.30;;;9.90;99.90;;;;;;5013236;28;20802;-80
2023/04/02 07:48:13;;;;;;;0.40;0.37;;;9.90;99.90;;;;;;5013496;28;20444;-79
2023/04/02 07:50:40;;;;;;;0.40;0.30;;;10.00;99.90;;;;;;5013134;28;20480;-80
2023/04/02 07:53:07;;;;;;;0.40;0.40;;;10.00;99.90;;;;;;5013454;28;20452;-80
2023/04/02 07:55:35;;;;;;;0.70;0.30;;;10.10;99.90;;;;;;5013470;28;20460;-80
2023/04/02 07:58:03;;;;;;;0.30;0.30;;;10.10;99.90;;;;;;5013313;28;20506;-80
2023/04/02 08:00:31;;;;;;;0.37;0.30;;;10.20;99.90;;;;;;5013338;28;20507;-79
2023/04/02 08:02:57;;;;;;;0.60;0.30;;;10.20;99.90;;;;;;5013395;28;20828;-80
2023/04/02 08:05:25;;;;;;;0.50;0.30;;;10.30;99.90;;;;;;5013342;28;20456;-80
2023/04/02 08:07:54;;;;;;;0.30;0.30;;;10.30;99.90;;;;;;5013331;28;20888;-79
2023/04/02 08:10:21;;;;;;;0.60;0.33;;;10.30;99.90;;;;;;5013257;28;20468;-80
2023/04/02 08:12:49;;;;;;;1.23;0.30;;;10.50;99.90;;;;;;5013062;28;20435;-80
2023/04/02 08:15:16;;;;;;;0.50;0.47;;;10.50;99.90;;;;;;5012887;28;20480;-80
2023/04/02 08:17:43;;;;;;;0.30;0.30;;;10.60;99.90;;;;;;5012929;28;20812;-79
2023/04/02 08:20:16;;;;;;;0.50;0.30;;;10.60;99.90;;;;;;5013160;28;20521;-79
2023/04/02 08:22:43;;;;;;;0.30;0.30;;;10.60;99.90;;;;;;5013269;28;20451;-80
2023/04/02 08:25:10;;;;;;;0.30;0.30;;;10.60;99.90;;;;;;5013063;28;20487;-80
2023/04/02 08:27:37;;;;;;;0.30;0.30;;;10.40;99.90;;;;;;5014616;28;20474;-80
2023/04/02 08:30:08;;;;;;;0.30;0.30;;;10.30;99.90;;;;;;5016810;28;20482;-79
2023/04/02 08:32:35;;;;;;;0.30;0.30;;;10.30;99.90;;;;;;5016891;28;20433;-80
2023/04/02 08:35:02;;;;;;;0.30;0.30;;;10.30;99.90;;;;;;5016771;28;20451;-79
2023/04/02 08:37:29;;;;;;;0.57;0.40;;;10.30;99.90;;;;;;5016851;28;20479;-80
2023/04/02 08:39:58;;;;;;;0.30;0.30;;;10.20;99.90;;;;;;5016672;28;20483;-80
2023/04/02 08:42:32;;;;;;;0.37;0.30;;;10.20;99.90;;;;;;5016871;28;20448;-80
2023/04/02 08:45:11;;;;;;;1.00;0.50;;;10.20;99.90;;;;;;5016611;28;20464;-80
2023/04/02 08:47:40;;;;;;;0.37;0.33;;;10.20;99.90;;;;;;5016501;28;20956;-80
2023/04/02 08:50:15;;;;;;;0.37;0.30;;;10.30;99.90;;;;;;5016185;28;20475;-80
2023/04/02 08:52:41;;;;;;;0.40;0.30;;;10.30;99.90;;;;;;5016263;28;20985;-80
2023/04/02 08:55:21;;;;;;;0.97;0.50;;;10.30;99.90;;;;;;5016757;28;20432;-80
2023/04/02 08:57:54;;;;;;;0.50;0.50;;;10.20;99.90;;;;;;5016106;28;20440;-80
2023/04/02 09:00:30;;;;;;;0.30;0.30;;;10.20;99.90;;;;;;5016324;28;20471;-80
2023/04/02 09:03:00;;;;;;;0.40;0.40;;;10.30;99.90;;;;;;5016341;28;20487;-79
2023/04/02 09:05:29;;;;;;;1.63;0.43;;;10.40;99.90;;;;;;5016195;28;20486;-79
2023/04/02 09:07:58;;;;;;;0.40;0.30;;;10.40;99.90;;;;;;5015882;28;20936;-80
2023/04/02 09:10:35;;;;;;;0.40;0.40;;;10.50;99.90;;;;;;5016075;28;20477;-80
2023/04/02 09:13:05;;;;;;;0.40;0.30;;;10.60;99.90;;;;;;5016150;28;20478;-80
2023/04/02 09:15:35;;;;;;;0.97;0.37;;;10.50;99.90;;;;;;5015789;28;20559;-80
2023/04/02 09:18:12;;;;;;;0.60;0.50;;;10.80;99.90;;;;;;5015995;28;20448;-80
2023/04/02 09:20:39;;;;;;;0.40;0.30;;;10.90;99.90;;;;;;5015924;28;20474;-81
2023/04/02 09:23:08;;;;;;;0.33;0.30;;;11.10;99.90;;;;;;5015654;28;20452;-82
2023/04/02 09:25:35;;;;;;;0.40;0.30;;;11.20;99.90;;;;;;5015426;28;21015;-82
2023/04/02 09:28:05;;;;;;;0.40;0.30;;;11.30;99.90;;;;;;5015812;28;20459;-81
2023/04/02 09:30:52;;;;;;;0.70;0.60;;;11.30;99.90;;;;;;5015732;28;20468;-82
2023/04/02 09:33:18;;;;;;;0.30;0.30;;;11.30;99.90;;;;;;5015750;28;20436;-81
2023/04/02 09:35:56;;;;;;;0.30;0.30;;;11.20;99.90;;;;;;5015703;28;20448;-81
2023/04/02 09:38:29;;;;;;;0.40;0.30;;;11.20;99.90;;;;;;5015386;28;20440;-81
2023/04/02 09:41:00;;;;;;;0.40;0.33;;;11.30;99.90;;;;;;5015521;28;20472;-81
2023/04/02 09:43:28;;;;;;;0.40;0.40;;;11.30;99.90;;;;;;5016298;28;20539;-81
2023/04/02 09:45:59;;;;;;;0.40;0.30;;;11.40;99.90;;;;;;5015268;28;20799;-81
2023/04/02 09:48:30;;;;;;;0.30;0.20;;;11.50;99.90;;;;;;5015161;28;20816;-81
2023/04/02 09:51:05;;;;;;;0.40;0.40;;;11.50;99.90;;;;;;5015362;28;20464;-81
2023/04/02 09:53:35;;;;;;;0.30;0.30;;;11.40;99.90;;;;;;5015407;28;20813;-81
2023/04/02 09:56:16;;;;;;;0.40;0.30;;;11.40;99.90;;;;;;5015033;28;20440;-81
2023/04/02 09:58:45;;;;;;;0.40;0.30;;;11.40;99.90;;;;;;5015222;28;20432;-81
2023/04/02 10:01:32;;;;;;;0.30;0.30;;;11.50;99.90;;;;;;5015625;28;20464;-81
2023/04/02 10:04:00;;;;;;;4.33;0.50;;;11.60;99.90;;;;;;5015331;28;20588;-81
2023/04/02 10:06:29;;;;;;;0.40;0.40;;;11.80;99.90;;;;;;5014794;28;20461;-81
2023/04/02 10:08:56;;;;;;;0.30;0.30;;;12.00;99.90;;;;;;5015039;28;20508;-81
2023/04/02 10:11:28;;;;;;;0.50;0.50;;;12.20;99.90;;;;;;5014952;28;20436;-81
2023/04/02 10:13:58;;;;;;;0.30;0.30;;;12.20;99.90;;;;;;5015215;28;20452;-81
2023/04/02 10:16:31;;;;;;;0.30;0.30;;;12.30;99.90;;;;;;5014966;28;20435;-81
2023/04/02 10:19:03;;;;;;;0.30;0.23;;;12.40;99.90;;;;;;5014912;28;20567;-81
2023/04/02 10:21:33;;;;;;;0.40;0.40;;;12.40;99.90;;;;;;5014879;28;20531;-81
2023/04/02 10:24:01;;;;;;;0.30;0.30;;;12.50;99.90;;;;;;5014673;28;20990;-81
2023/04/02 10:26:51;;;;;;;0.40;0.30;;;12.40;99.90;;;;;;5014424;28;20556;-81
2023/04/02 10:29:37;;;;;;;0.30;0.30;;;12.20;99.90;;;;;;5014427;28;20455;-81
2023/04/02 10:32:10;;;;;;;1.30;0.40;;;12.10;99.90;;;;;;5014681;28;20464;-81
2023/04/02 10:34:46;;;;;;;0.40;0.30;;;12.00;99.90;;;;;;5014656;28;20793;-80
2023/04/02 10:37:49;;;;;;;0.50;0.40;;;11.90;99.90;;;;;;5014310;28;20896;-79
2023/04/02 10:40:21;;;;;;;0.30;0.30;;;11.80;99.90;;;;;;5014751;28;20466;-80
2023/04/02 10:42:55;;;;;;;0.40;0.30;;;11.60;99.90;;;;;;5014535;28;20464;-79
2023/04/02 10:45:35;;;;;;;0.30;0.30;;;11.50;99.90;;;;;;5014090;28;20994;-79
2023/04/02 10:48:10;;;;;;;0.40;0.30;;;11.50;99.90;;;;;;5014459;28;20443;-79
2023/04/02 10:50:45;;;;;;;0.60;0.30;;;11.40;99.90;;;;;;5013703;28;20510;-79
2023/04/02 10:53:16;;;;;;;0.40;0.30;;;11.30;99.90;;;;;;5014313;28;20502;-79
2023/04/02 10:55:45;;;;;;;0.30;0.30;;;11.30;99.90;;;;;;5014259;28;20445;-79
2023/04/02 10:58:23;;;;;;;0.50;0.40;;;11.30;99.90;;;;;;5014352;28;20464;-79
2023/04/02 11:00:51;;;;;;;0.30;0.30;;;11.20;99.90;;;;;;5014120;28;20474;-79
2023/04/02 11:03:28;;;;;;;0.30;0.30;;;11.20;99.90;;;;;;5014141;28;20452;-79
2023/04/02 11:06:00;;;;;;;0.40;0.30;;;11.20;99.90;;;;;;5013999;28;20476;-79
2023/04/02 11:08:31;;;;;;;0.30;0.30;;;11.20;99.90;;;;;;5013763;28;21011;-79
2023/04/02 11:11:01;;;;;;;0.30;0.20;;;11.20;99.90;;;;;;5014007;28;20472;-80
2023/04/02 11:13:32;;;;;;;0.30;0.30;;;11.20;99.90;;;;;;5014229;28;20448;-80
2023/04/02 11:15:59;;;;;;;0.30;0.20;;;11.30;99.90;;;;;;5013651;28;20493;-79
2023/04/02 11:18:32;;;;;;;0.50;0.40;;;11.30;99.90;;;;;;5013872;28;20447;-80
2023/04/02 11:21:03;;;;;;;0.40;0.30;;;11.40;99.90;;;;;;5013713;28;20484;-79
2023/04/02 11:23:36;;;;;;;0.30;0.30;;;11.40;99.90;;;;;;5013547;28;20432;-80
2023/04/02 11:26:32;;;;;;;0.30;0.30;;;11.50;99.90;;;;;;5013755;28;20494;-79
2023/04/02 11:29:07;;;;;;;0.30;0.30;;;11.60;99.90;;;;;;5005247;28;20914;-79
2023/04/02 11:31:35;;;;;;;0.50;0.30;;;11.60;99.90;;;;;;5013722;28;20440;-79
2023/04/02 11:34:01;;;;;;;0.40;0.30;;;11.70;99.90;;;;;;5013688;28;20452;-79
2023/04/02 11:37:08;;;;;;;0.30;0.30;;;11.90;99.90;;;;;;5013662;28;20453;-79
2023/04/02 11:39:55;;;;;;;0.30;0.30;;;11.90;99.90;;;;;;5013557;28;20471;-79
2023/04/02 11:42:28;;;;;;;0.30;0.20;;;12.00;99.90;;;;;;5013582;28;20449;-79
2023/04/02 11:44:56;;;;;;;0.30;0.30;;;12.00;99.90;;;;;;5013252;28;20472;-79
2023/04/02 11:47:24;;;;;;;0.90;0.37;;;12.00;99.90;;;;;;5013210;28;20448;-80
2023/04/02 11:50:03;;;;;;;0.40;0.30;;;12.10;99.90;;;;;;5013179;28;20472;-79
2023/04/02 11:52:38;;;;;;;0.30;0.30;;;12.20;99.90;;;;;;5013539;28;20515;-79
2023/04/02 11:55:25;;;;;;;0.40;0.30;;;12.30;99.90;;;;;;5013494;28;20432;-79
2023/04/02 11:58:23;;;;;;;0.50;0.30;;;12.40;99.90;;;;;;5013389;28;20499;-79
2023/04/02 12:01:25;;;;;;;0.50;0.50;;;12.50;99.90;;;;;;5007187;28;20480;-79
2023/04/02 12:04:21;;;;;;;0.30;0.30;;;12.70;99.90;;;;;;5017504;28;20452;-79
2023/04/02 12:06:58;;;;;;;1.90;0.40;;;12.60;99.90;;;;;;4976201;28;20993;-79
2023/04/02 12:09:28;;;;;;;0.50;0.30;;;12.60;99.90;;;;;;5017549;28;20455;-79
2023/04/02 12:11:56;;;;;;;0.33;0.27;;;12.60;99.90;;;;;;5017327;28;20453;-79
2023/04/02 12:14:41;;;;;;;0.30;0.30;;;12.60;99.90;;;;;;5016742;28;20522;-79
2023/04/02 12:17:18;;;;;;;0.30;0.30;;;12.70;99.90;;;;;;5016992;28;20417;-79
2023/04/02 12:19:50;;;;;;;0.30;0.30;;;12.60;99.90;;;;;;5017086;28;20474;-79
2023/04/02 12:22:20;;;;;;;0.40;0.30;;;12.60;99.90;;;;;;5017144;28;20439;-79
2023/04/02 12:24:49;;;;;;;0.40;0.30;;;12.60;99.90;;;;;;5016914;28;20480;-79
2023/04/02 12:27:21;;;;;;;0.30;0.30;;;12.50;99.90;;;;;;5016718;28;20947;-79
2023/04/02 12:29:48;;;;;;;0.30;0.30;;;12.60;99.90;;;;;;5016854;28;20482;-79
2023/04/02 12:32:21;;;;;;;0.30;0.30;;;12.60;99.90;;;;;;5016568;28;20866;-79
2023/04/02 12:34:49;;;;;;;0.80;0.40;;;12.60;99.90;;;;;;5017087;28;20464;-79
2023/04/02 12:37:22;;;;;;;0.30;0.20;;;12.70;99.90;;;;;;5016840;28;20528;-79
2023/04/02 12:39:55;;;;;;;0.40;0.40;;;12.80;99.90;;;;;;5016465;28;20456;-79
2023/04/02 12:42:30;;;;;;;0.33;0.30;;;12.80;99.90;;;;;;5016719;28;20917;-79
2023/04/02 12:44:56;;;;;;;0.30;0.30;;;12.80;99.90;;;;;;5016624;28;20494;-79
2023/04/02 12:47:24;;;;;;;0.40;0.40;;;12.90;99.90;;;;;;5016633;28;20475;-79
2023/04/02 12:49:51;;;;;;;0.40;0.30;;;12.80;99.90;;;;;;5016503;28;20524;-79
2023/04/02 12:52:20;;;;;;;0.30;0.30;;;12.80;99.90;;;;;;5016536;28;20448;-79
2023/04/02 12:54:49;;;;;;;0.40;0.30;;;12.90;99.90;;;;;;5016467;28;20476;-79
2023/04/02 12:57:32;;;;;;;0.87;0.40;;;13.00;99.90;;;;;;5016447;28;20456;-79
2023/04/02 13:00:02;;;;;;;0.30;0.30;;;13.10;99.90;;;;;;5016356;28;20476;-79
2023/04/02 13:02:31;;;;;;;0.40;0.30;;;13.10;99.90;;;;;;5018341;28;20452;-78
2023/04/02 13:05:00;;;;;;;0.47;0.40;;;13.30;99.90;;;;;;5016255;28;20484;-78
2023/04/02 13:07:29;;;;;;;0.33;0.30;;;13.50;99.90;;;;;;5016941;28;20487;-78
2023/04/02 13:09:58;;;;;;;0.40;0.30;;;13.60;99.90;;;;;;5016128;28;20483;-78
2023/04/02 13:12:32;;;;;;;0.30;0.20;;;13.60;99.90;;;;;;5015671;28;20443;-78
2023/04/02 13:15:01;;;;;;;0.30;0.30;;;13.80;99.90;;;;;;5015786;28;20511;-78
2023/04/02 13:17:40;;;;;;;0.37;0.30;;;13.80;99.90;;;;;;5016230;28;20460;-78
2023/04/02 13:20:29;;;;;;;0.40;0.30;;;14.00;99.90;;;;;;5015928;28;20472;-78